Kezdőlap
METAR-TAF:

METAR-TAF

Repülőterek :

Nagyszeben, Románia

földrajzi szélesség: 45-48N, földrajzi hosszúság: 024-09E, magasság: 443 m

Jelenlegi meteorológiai megfigyelések

A jelentés 10 órával és 18 perccel ezelõtt készült, 15:00 UTC
Dél-délkeleti szél 8 kt, kelet-délkeleti és déli között változik
Hőmérséklet 5°C
Páratartalom 56%
Légköri nyomás 1012 hPa
Látótávolság 10 km, vagy több
felhőtlen 1500 m magasságban, és nincs gomolyfelhõ

METAR: LRSB 201500Z 16008KT 120V190 CAVOK 05/M03 Q1012

Idő: 03:18 (01:18 UTC)

Előrejelzés

A jelentés 14 órával és 18 perccel ezelõtt készült, 11:00 UTC
Az előrejelzés 20-én 12 óra UTC és 21-én 12 óra UTC között érvényes
Dél-délkeleti szél 15 kt
Látótávolság 10 km, vagy több
felhőtlen 1500 m magasságban, és nincs gomolyfelhõ
20-én 18 óra UTC és 20-én 20 óra UTC között fokozatosan kialakuló
Délkeleti szél 5 kt

TAF: LRSB 201100Z 2012/2112 16015KT CAVOK BECMG 2018/2020 13005KT

Meteorológiai megfigyelések és előrejelzések több, mint 4000 repülőtéren (METAR és TAF jelentéseket).

A térképen piros és sárga pontok jelzik az elérhető meteorológiai állomásokat.

Mozgassa az egeret a pont fölött, hogy megjelenjen az állomás neve.

Azután kattintson az időjárási megfigyelések és előrejelzések megtekintéséhez.

A térkép megváltoztatása: kattintson a fekete keresztel jelölt zöld gombra ráközelítéshez, a vonallal jelölt zöld gombra távolításhoz, vagy a zöld nyilakra a szomszédos térképek eléréséhez.


METAR-TAF: